createdAt,value
2023-04-22T00:01:34.260Z,100.00
2023-04-22T00:04:41.249Z,100.00
2023-04-22T00:07:46.597Z,100.00
2023-04-22T00:10:53.132Z,100.00
2023-04-22T00:13:58.818Z,100.00
2023-04-22T00:20:55.833Z,100.00
2023-04-22T00:24:01.315Z,100.00
2023-04-22T00:27:06.441Z,100.00
2023-04-22T00:30:13.075Z,100.00
2023-04-22T00:33:20.014Z,100.00
2023-04-22T00:36:26.114Z,100.00
2023-04-22T00:39:32.452Z,100.00
2023-04-22T00:42:37.964Z,100.00
2023-04-22T00:45:43.313Z,100.00
2023-04-22T00:48:49.057Z,100.00
2023-04-22T00:51:55.425Z,100.00
2023-04-22T00:55:01.046Z,100.00
2023-04-22T00:58:06.421Z,100.00
2023-04-22T01:01:12.559Z,100.00
2023-04-22T01:04:20.655Z,100.00
2023-04-22T01:07:26.832Z,100.00
2023-04-22T01:10:32.943Z,100.00
2023-04-22T01:13:38.906Z,100.00
2023-04-22T01:16:46.221Z,100.00
2023-04-22T01:19:51.918Z,100.00
2023-04-22T01:22:59.336Z,100.00
2023-04-22T01:26:04.264Z,100.00
2023-04-22T01:29:09.177Z,100.00
2023-04-22T01:32:14.567Z,100.00
2023-04-22T01:35:20.407Z,100.00
2023-04-22T01:38:26.647Z,100.00
2023-04-22T01:41:31.965Z,100.00
2023-04-22T01:44:37.296Z,100.00
2023-04-22T01:47:42.390Z,100.00
2023-04-22T01:50:48.561Z,100.00
2023-04-22T01:53:53.543Z,100.00
2023-04-22T01:57:07.616Z,100.00
2023-04-22T02:00:13.754Z,100.00
2023-04-22T02:03:19.082Z,100.00
2023-04-22T02:06:25.614Z,100.00
2023-04-22T02:09:31.586Z,100.00
2023-04-22T02:12:36.662Z,100.00
2023-04-22T02:15:41.832Z,100.00
2023-04-22T02:18:47.683Z,100.00
2023-04-22T02:21:54.078Z,100.00
2023-04-22T02:24:59.518Z,100.00
2023-04-22T02:28:04.662Z,100.00
2023-04-22T02:31:09.555Z,100.00
2023-04-22T02:34:15.044Z,100.00
2023-04-22T02:37:20.094Z,100.00
2023-04-22T02:40:26.357Z,100.00
2023-04-22T02:43:31.152Z,100.00
2023-04-22T02:46:35.912Z,100.00
2023-04-22T02:49:41.559Z,100.00
2023-04-22T02:52:48.887Z,100.00
2023-04-22T02:55:55.980Z,100.00
2023-04-22T02:59:01.962Z,100.00
2023-04-22T03:02:07.455Z,100.00
2023-04-22T03:05:33.930Z,100.00
2023-04-22T03:08:40.452Z,100.00
2023-04-22T03:11:46.092Z,100.00
2023-04-22T03:14:51.963Z,100.00
2023-04-22T03:17:59.375Z,100.00
2023-04-22T03:21:05.553Z,100.00
2023-04-22T03:24:04.938Z,100.00
2023-04-22T03:27:05.461Z,100.00
2023-04-22T03:30:10.406Z,100.00
2023-04-22T03:33:18.075Z,100.00
2023-04-22T03:36:26.169Z,100.00
2023-04-22T03:39:32.058Z,100.00
2023-04-22T03:42:38.771Z,100.00
2023-04-22T03:45:45.233Z,100.00
2023-04-22T03:48:52.076Z,100.00
2023-04-22T03:52:00.982Z,100.00
2023-04-22T03:55:07.933Z,100.00
2023-04-22T03:58:15.072Z,100.00
2023-04-22T04:01:21.844Z,100.00
2023-04-22T04:04:31.193Z,100.00
2023-04-22T04:07:39.980Z,100.00
2023-04-22T04:10:45.527Z,100.00
2023-04-22T04:13:50.583Z,100.00
2023-04-22T04:16:59.587Z,100.00
2023-04-22T04:20:06.602Z,100.00
2023-04-22T04:23:13.043Z,100.00
2023-04-22T04:26:18.409Z,100.00
2023-04-22T04:29:30.935Z,100.00
2023-04-22T04:32:47.653Z,100.00
2023-04-22T04:35:54.774Z,100.00
2023-04-22T04:39:03.735Z,100.00
2023-04-22T04:42:09.267Z,100.00
2023-04-22T04:45:15.980Z,100.00
2023-04-22T04:48:21.947Z,100.00
2023-04-22T04:51:29.846Z,100.00
2023-04-22T04:54:36.086Z,100.00
2023-04-22T04:57:42.131Z,100.00
2023-04-22T05:00:48.008Z,100.00
2023-04-22T05:03:54.302Z,100.00
2023-04-22T05:07:00.719Z,100.00
2023-04-22T05:10:08.012Z,100.00
2023-04-22T05:13:13.355Z,100.00
2023-04-22T05:16:19.089Z,100.00
2023-04-22T05:19:24.627Z,100.00
2023-04-22T05:22:29.280Z,100.00
2023-04-22T05:25:34.837Z,100.00
2023-04-22T05:28:41.610Z,100.00
2023-04-22T05:31:47.780Z,100.00
2023-04-22T05:34:54.479Z,100.00
2023-04-22T05:38:01.297Z,100.00
2023-04-22T05:41:07.128Z,100.00
2023-04-22T05:44:12.653Z,100.00
2023-04-22T05:47:18.490Z,100.00
2023-04-22T05:50:27.081Z,100.00
2023-04-22T05:53:34.530Z,100.00
2023-04-22T05:56:41.290Z,100.00
2023-04-22T05:59:47.672Z,100.00
2023-04-22T06:02:54.688Z,99.83
2023-04-22T06:06:01.831Z,98.98
2023-04-22T06:09:07.494Z,98.33
2023-04-22T06:12:12.616Z,98.42
2023-04-22T06:15:19.084Z,98.05
2023-04-22T06:18:26.460Z,98.28
2023-04-22T06:21:31.505Z,97.87
2023-04-22T06:24:36.448Z,97.31
2023-04-22T06:27:41.832Z,96.94
2023-04-22T06:30:46.833Z,96.42
2023-04-22T06:33:52.669Z,95.77
2023-04-22T06:36:54.163Z,95.06
2023-04-22T06:40:00.295Z,94.34
2023-04-22T06:43:11.009Z,94.68
2023-04-22T06:46:34.152Z,94.25
2023-04-22T06:49:51.752Z,94.15
2023-04-22T06:52:42.927Z,94.35
2023-04-22T06:55:35.273Z,93.33
2023-04-22T06:58:22.126Z,91.87
2023-04-22T07:01:14.282Z,92.12
2023-04-22T07:04:13.110Z,90.46
2023-04-22T07:07:11.871Z,89.22
2023-04-22T07:09:58.804Z,87.47
2023-04-22T07:12:54.148Z,87.03
2023-04-22T07:15:41.120Z,85.82
2023-04-22T07:18:33.546Z,83.58
2023-04-22T07:21:19.843Z,84.15
2023-04-22T07:24:13.086Z,84.06
2023-04-22T07:26:59.370Z,83.06
2023-04-22T07:29:52.023Z,84.14
2023-04-22T07:32:59.105Z,83.72
2023-04-22T07:36:03.938Z,82.59
2023-04-22T07:39:09.261Z,82.01
2023-04-22T07:42:16.035Z,82.31
2023-04-22T07:45:22.245Z,81.26
2023-04-22T07:48:28.248Z,80.16
2023-04-22T07:51:34.659Z,80.78
2023-04-22T07:54:40.402Z,80.46
2023-04-22T07:57:47.222Z,80.34
2023-04-22T08:00:52.404Z,80.82
2023-04-22T08:03:59.185Z,81.29
2023-04-22T08:07:17.072Z,81.40
2023-04-22T08:10:13.290Z,81.32
2023-04-22T08:13:18.963Z,81.11
2023-04-22T08:16:26.168Z,79.24
2023-04-22T08:19:31.781Z,78.51
2023-04-22T08:22:38.888Z,76.95
2023-04-22T08:25:44.857Z,76.93
2023-04-22T08:28:53.997Z,76.87
2023-04-22T08:31:53.051Z,77.47
2023-04-22T08:34:57.542Z,78.46
2023-04-22T08:38:00.681Z,78.23
2023-04-22T08:41:07.425Z,77.85
2023-04-22T08:44:16.516Z,77.95
2023-04-22T08:47:24.239Z,77.16
2023-04-22T08:50:23.091Z,77.16
2023-04-22T08:53:28.574Z,77.22
2023-04-22T08:56:36.000Z,75.45
2023-04-22T08:59:42.257Z,73.42
2023-04-22T09:02:48.837Z,74.02
2023-04-22T09:05:55.843Z,74.55
2023-04-22T09:09:03.029Z,73.32
2023-04-22T09:12:09.799Z,72.45
2023-04-22T09:15:16.704Z,71.52
2023-04-22T09:18:24.525Z,70.95
2023-04-22T09:21:31.066Z,70.12
2023-04-22T09:24:36.820Z,68.84
2023-04-22T09:27:41.665Z,68.44
2023-04-22T09:30:48.729Z,67.80
2023-04-22T09:33:55.380Z,68.78
2023-04-22T09:37:01.108Z,69.46
2023-04-22T09:40:06.825Z,71.47
2023-04-22T09:43:15.897Z,74.13
2023-04-22T09:46:21.684Z,78.38
2023-04-22T09:49:28.698Z,79.96
2023-04-22T09:52:39.194Z,78.09
2023-04-22T09:55:49.034Z,77.30
2023-04-22T09:58:55.147Z,78.21
2023-04-22T10:02:01.869Z,78.34
2023-04-22T10:05:08.481Z,77.69
2023-04-22T10:08:15.061Z,78.29
2023-04-22T10:11:21.006Z,78.04
2023-04-22T10:14:27.405Z,76.54
2023-04-22T10:17:33.501Z,75.44
2023-04-22T10:20:39.962Z,75.43
2023-04-22T10:23:48.672Z,76.28
2023-04-22T10:27:17.170Z,78.32
2023-04-22T10:30:23.881Z,79.87
2023-04-22T10:33:44.035Z,80.90
2023-04-22T10:36:49.526Z,81.52
2023-04-22T10:39:57.279Z,83.30
2023-04-22T10:43:09.025Z,83.56
2023-04-22T10:46:14.748Z,83.56
2023-04-22T10:49:24.690Z,83.28
2023-04-22T10:52:43.355Z,83.18
2023-04-22T10:56:05.630Z,84.07
2023-04-22T10:59:14.387Z,83.58
2023-04-22T11:02:23.110Z,81.39
2023-04-22T11:05:42.634Z,79.80
2023-04-22T11:08:47.707Z,79.55
2023-04-22T11:11:54.570Z,78.68
2023-04-22T11:15:00.185Z,77.79
2023-04-22T11:18:09.911Z,77.47
2023-04-22T11:21:20.383Z,77.46
2023-04-22T11:24:25.302Z,76.69
2023-04-22T11:27:30.613Z,74.07
2023-04-22T11:30:39.189Z,72.11
2023-04-22T11:33:48.403Z,70.80
2023-04-22T11:36:55.013Z,71.45
2023-04-22T11:40:21.008Z,73.78
2023-04-22T11:43:07.924Z,73.05
2023-04-22T11:46:07.023Z,72.96
2023-04-22T11:49:33.230Z,72.25
2023-04-22T11:52:39.011Z,71.59
2023-04-22T11:55:49.965Z,72.13
2023-04-22T11:58:55.953Z,70.79
2023-04-22T12:02:03.091Z,69.81
2023-04-22T12:05:08.278Z,70.22
2023-04-22T12:08:14.232Z,68.80
2023-04-22T12:11:22.831Z,68.68
2023-04-22T12:14:28.109Z,67.08
2023-04-22T12:17:38.732Z,66.88
2023-04-22T12:20:51.041Z,66.02
2023-04-22T12:24:01.697Z,65.65
2023-04-22T12:27:08.246Z,65.47
2023-04-22T12:30:13.815Z,66.59
2023-04-22T12:33:20.205Z,66.29
2023-04-22T12:36:28.141Z,65.57
2023-04-22T12:39:34.301Z,65.13
2023-04-22T12:42:40.495Z,65.14
2023-04-22T12:45:47.109Z,64.37
2023-04-22T12:48:53.867Z,65.01
2023-04-22T12:52:00.728Z,65.43
2023-04-22T12:54:59.505Z,65.35
2023-04-22T12:58:05.546Z,63.55
2023-04-22T13:01:11.863Z,63.75
2023-04-22T13:04:17.589Z,64.41
2023-04-22T13:07:24.956Z,64.76
2023-04-22T13:10:31.162Z,65.02
2023-04-22T13:13:36.896Z,62.99
2023-04-22T13:16:42.597Z,59.94
2023-04-22T13:19:47.995Z,61.30
2023-04-22T13:22:54.660Z,61.18
2023-04-22T13:26:00.467Z,61.13
2023-04-22T13:29:05.446Z,59.45
2023-04-22T13:32:10.525Z,59.64
2023-04-22T13:35:16.088Z,60.33
2023-04-22T13:38:22.254Z,61.20
2023-04-22T13:41:28.439Z,62.39
2023-04-22T13:44:34.275Z,62.97
2023-04-22T13:47:40.550Z,63.61
2023-04-22T13:50:47.983Z,63.52
2023-04-22T13:53:54.406Z,64.01
2023-04-22T13:56:59.943Z,64.83
2023-04-22T14:00:05.673Z,65.59
2023-04-22T14:03:12.305Z,65.64
2023-04-22T14:06:17.753Z,64.59
2023-04-22T14:09:22.797Z,64.37
2023-04-22T14:12:27.984Z,64.82
2023-04-22T14:15:33.490Z,64.37
2023-04-22T14:18:42.282Z,64.40
2023-04-22T14:21:48.380Z,64.94
2023-04-22T14:24:55.599Z,64.15
2023-04-22T14:28:02.064Z,63.98
2023-04-22T14:31:08.075Z,66.06
2023-04-22T14:34:13.302Z,70.79
2023-04-22T14:37:22.748Z,72.94
2023-04-22T14:40:32.501Z,74.56
2023-04-22T14:43:38.592Z,75.95
2023-04-22T14:46:44.664Z,76.85
2023-04-22T14:49:51.524Z,77.96
2023-04-22T14:52:59.205Z,79.37
2023-04-22T14:56:04.458Z,80.80
2023-04-22T14:59:09.962Z,82.53
2023-04-22T15:02:15.783Z,84.85
2023-04-22T15:05:22.355Z,88.15
2023-04-22T15:08:28.834Z,90.94
2023-04-22T15:11:34.840Z,92.27
2023-04-22T15:14:41.693Z,93.12
2023-04-22T15:17:46.813Z,94.11
2023-04-22T15:20:52.347Z,95.10
2023-04-22T15:23:58.223Z,95.75
2023-04-22T15:27:06.558Z,96.30
2023-04-22T15:30:12.251Z,97.48
2023-04-22T15:33:17.247Z,97.94
2023-04-22T15:36:25.475Z,98.21
2023-04-22T15:39:31.936Z,98.74
2023-04-22T15:42:36.535Z,99.11
2023-04-22T15:45:42.893Z,99.70
2023-04-22T15:48:50.517Z,100.00
2023-04-22T15:51:56.954Z,100.00
2023-04-22T15:54:57.114Z,100.00
2023-04-22T15:58:02.045Z,100.00
2023-04-22T16:01:18.660Z,100.00
2023-04-22T16:04:14.387Z,100.00
2023-04-22T16:07:19.960Z,100.00
2023-04-22T16:10:25.956Z,100.00
2023-04-22T16:13:31.387Z,100.00
2023-04-22T16:16:39.568Z,100.00
2023-04-22T16:19:44.409Z,100.00
2023-04-22T16:22:52.888Z,100.00
2023-04-22T16:25:58.666Z,100.00
2023-04-22T16:29:05.213Z,100.00
2023-04-22T16:32:11.975Z,100.00
2023-04-22T16:35:18.830Z,100.00
2023-04-22T16:38:24.815Z,100.00
2023-04-22T16:41:30.577Z,100.00
2023-04-22T16:44:36.248Z,100.00
2023-04-22T16:47:42.184Z,100.00
2023-04-22T16:50:47.277Z,100.00
2023-04-22T16:53:53.084Z,100.00
2023-04-22T16:56:59.800Z,100.00
2023-04-22T17:00:05.530Z,100.00
2023-04-22T17:03:12.886Z,100.00
2023-04-22T17:06:18.497Z,100.00
2023-04-22T17:09:24.256Z,100.00
2023-04-22T17:12:29.561Z,100.00
2023-04-22T17:15:35.669Z,100.00
2023-04-22T17:18:42.756Z,100.00
2023-04-22T17:21:48.983Z,100.00
2023-04-22T17:24:54.380Z,100.00
2023-04-22T17:28:00.499Z,100.00
2023-04-22T17:31:06.507Z,100.00
2023-04-22T17:34:11.535Z,100.00
2023-04-22T17:37:17.439Z,100.00
2023-04-22T17:40:23.410Z,100.00
2023-04-22T17:43:28.867Z,100.00
2023-04-22T17:46:34.790Z,100.00
2023-04-22T17:49:40.501Z,100.00
2023-04-22T17:52:45.945Z,100.00
2023-04-22T17:55:51.266Z,100.00
2023-04-22T17:58:51.184Z,100.00
2023-04-22T18:01:50.337Z,100.00
2023-04-22T18:04:48.420Z,100.00
2023-04-22T18:07:40.750Z,100.00
2023-04-22T18:10:46.509Z,100.00
2023-04-22T18:13:53.180Z,100.00
2023-04-22T18:16:58.635Z,100.00
2023-04-22T18:20:16.813Z,100.00
2023-04-22T18:23:11.940Z,100.00
2023-04-22T18:26:18.149Z,100.00
2023-04-22T18:29:18.583Z,100.00
2023-04-22T18:32:04.324Z,100.00
2023-04-22T18:34:57.191Z,100.00
2023-04-22T18:37:49.956Z,100.00
2023-04-22T18:40:55.873Z,100.00
2023-04-22T18:44:00.914Z,100.00
2023-04-22T18:47:05.446Z,100.00
2023-04-22T18:50:11.494Z,100.00
2023-04-22T18:53:17.022Z,100.00
2023-04-22T18:56:23.772Z,100.00
2023-04-22T18:59:29.925Z,100.00
2023-04-22T19:02:38.439Z,100.00
2023-04-22T19:05:42.999Z,100.00
2023-04-22T19:08:49.025Z,100.00
2023-04-22T19:11:54.515Z,100.00
2023-04-22T19:14:59.985Z,100.00
2023-04-22T19:18:06.805Z,100.00
2023-04-22T19:21:14.672Z,100.00
2023-04-22T19:24:21.623Z,100.00
2023-04-22T19:27:27.156Z,100.00
2023-04-22T19:30:34.040Z,100.00
2023-04-22T19:33:39.662Z,100.00
2023-04-22T19:36:45.292Z,100.00
2023-04-22T19:39:51.296Z,100.00
2023-04-22T19:42:57.378Z,100.00
2023-04-22T19:46:03.065Z,100.00
2023-04-22T19:49:08.899Z,100.00
2023-04-22T19:52:21.445Z,100.00
2023-04-22T19:55:27.650Z,100.00
2023-04-22T19:58:35.472Z,100.00
2023-04-22T20:01:41.290Z,100.00
2023-04-22T20:04:47.149Z,100.00
2023-04-22T20:07:53.790Z,100.00
2023-04-22T20:11:01.370Z,100.00
2023-04-22T20:14:06.800Z,100.00
2023-04-22T20:17:12.278Z,100.00
2023-04-22T20:20:21.746Z,100.00
2023-04-22T20:23:27.333Z,100.00
2023-04-22T20:26:35.733Z,100.00
2023-04-22T20:29:40.972Z,100.00
2023-04-22T20:32:46.605Z,100.00
2023-04-22T20:35:53.498Z,100.00
2023-04-22T20:39:01.937Z,100.00
2023-04-22T20:42:10.339Z,100.00
2023-04-22T20:45:18.222Z,100.00
2023-04-22T20:48:24.909Z,100.00
2023-04-22T20:51:30.616Z,100.00
2023-04-22T20:54:37.698Z,100.00
2023-04-22T20:57:43.313Z,100.00
2023-04-22T21:00:49.891Z,100.00
2023-04-22T21:03:56.566Z,100.00
2023-04-22T21:07:03.167Z,100.00
2023-04-22T21:10:08.908Z,100.00
2023-04-22T21:13:14.476Z,100.00
2023-04-22T21:16:22.932Z,100.00
2023-04-22T21:19:29.085Z,100.00
2023-04-22T21:22:35.789Z,100.00
2023-04-22T21:25:41.730Z,100.00
2023-04-22T21:28:47.669Z,100.00
2023-04-22T21:32:07.410Z,100.00
2023-04-22T21:35:00.332Z,100.00
2023-04-22T21:38:08.233Z,100.00
2023-04-22T21:41:14.576Z,100.00
2023-04-22T21:44:20.294Z,100.00
2023-04-22T21:47:25.962Z,100.00
2023-04-22T21:50:32.382Z,100.00
2023-04-22T21:53:37.537Z,100.00
2023-04-22T21:56:42.621Z,100.00
2023-04-22T21:59:48.308Z,100.00
2023-04-22T22:02:54.270Z,100.00
2023-04-22T22:05:59.870Z,100.00
2023-04-22T22:09:05.143Z,100.00
2023-04-22T22:12:11.269Z,100.00
2023-04-22T22:15:18.122Z,100.00
2023-04-22T22:18:23.056Z,100.00
2023-04-22T22:21:27.911Z,100.00
2023-04-22T22:24:26.260Z,100.00
2023-04-22T22:27:32.143Z,100.00
2023-04-22T22:30:38.060Z,100.00
2023-04-22T22:33:46.932Z,100.00
2023-04-22T22:36:53.197Z,100.00
2023-04-22T22:39:59.498Z,100.00
2023-04-22T22:43:05.234Z,100.00
2023-04-22T22:46:10.277Z,100.00
2023-04-22T22:49:15.989Z,100.00
2023-04-22T22:52:21.901Z,100.00
2023-04-22T22:55:26.927Z,100.00
2023-04-22T22:58:32.883Z,100.00
2023-04-22T23:01:38.552Z,100.00
2023-04-22T23:04:46.725Z,100.00
2023-04-22T23:07:51.963Z,100.00
2023-04-22T23:10:58.537Z,100.00
2023-04-22T23:14:04.268Z,100.00
2023-04-22T23:17:10.559Z,100.00
2023-04-22T23:20:12.649Z,100.00
2023-04-22T23:23:18.567Z,100.00
2023-04-22T23:26:25.088Z,100.00
2023-04-22T23:29:30.969Z,100.00
2023-04-22T23:32:36.676Z,100.00
2023-04-22T23:35:42.365Z,100.00
2023-04-22T23:38:46.962Z,100.00
2023-04-22T23:41:53.450Z,100.00
2023-04-22T23:44:58.746Z,100.00
2023-04-22T23:48:04.877Z,100.00
2023-04-22T23:51:03.434Z,100.00
2023-04-22T23:54:09.190Z,100.00
2023-04-22T23:57:15.003Z,100.00
